ADDS METAR Data INFO
IDs: Format: Raw Decoded Include TAF

Data at: 2219 UTC 22 Aug 2017

KMRF 222156Z AUTO 10SM CLR 28/17 A3022 RMK AO2 LTG DSNT ALQDS SLP177 T02780167 $
KMRF 222056Z AUTO 02010KT 10SM CLR 29/16 A3024 RMK AO2 LTG DSNT NE-S TSE01B03E21 SLP178 T02890161 56016
KMRF 222032Z AUTO 35010KT 10SM CLR 29/16 A3024 RMK AO2 LTG DSNT SE TSE01B03E21
KMRF 222003Z AUTO 01010KT 10SM VCTS CLR 29/16 A3025 RMK AO2 LTG DSNT ALQDS TSE01B03
KMRF 221956Z AUTO 00000KT 10SM VCTS CLR 29/16 A3025 RMK AO2 LTG DSNT ALQDS TSB53 SLP182 T02940156
KMRF 221856Z AUTO 00000KT 10SM CLR 29/16 A3027 RMK AO2 LTG DSNT N SLP188 T02940156
KMRF 221756Z AUTO 23004KT 10SM CLR 28/17 A3029 RMK AO2 LTG DSNT N SLP196 T02780167 10283 20150 58001
KMRF 221656Z AUTO 19005KT 10SM CLR 27/16 A3030 RMK AO2 SLP202 T02670161
KMRF 221556Z AUTO 18004KT 10SM CLR 25/16 A3030 RMK AO2 SLP201 T02500156
KMRF 221456Z AUTO 00000KT 10SM CLR 23/16 A3029 RMK AO2 SLP200 T02280156 51013
KMRF 221356Z AUTO 00000KT 10SM CLR 21/17 A3028 RMK AO2 SLP200 T02060172
KMRF 221256Z AUTO 03003KT 10SM CLR 16/14 A3026 RMK AO2 SLP194 T01560144
KMRF 221156Z AUTO 36004KT 10SM CLR 16/14 A3025 RMK AO2 SLP190 7//// T01560144 10183 20156 55002
KMRF 221056Z AUTO 36005KT 10SM CLR 16/15 A3024 RMK AO2 SLP185 T01560150
KMRF 220956Z AUTO 01005KT 10SM CLR 16/16 A3024 RMK AO2 SLP184 T01610156
KMRF 220856Z AUTO 33003KT 10SM CLR 17/16 A3025 RMK AO2 SLP189 T01720156 55003
KMRF 220756Z AUTO 33003KT 10SM CLR 17/16 A3025 RMK AO2 SLP189 T01720161
KMRF 220656Z AUTO 33005KT 10SM CLR 18/17 A3026 RMK AO2 SLP190 T01780167 402780172
KMRF 220556Z AUTO 35004KT 10SM CLR 19/17 A3026 RMK AO2 SLP194 6//// T01890167 10250 20189 51005
KMRF 220356Z AUTO 07005KT 10SM CLR 21/17 A3026 RMK AO2 SLP189 T02060167
KMRF 220256Z AUTO 34004KT 10SM CLR 21/18 A3025 RMK AO2 SLP189 T02110183 53011
KMRF 220156Z AUTO 01008KT 10SM FEW060 22/17 A3023 RMK AO2 SLP182 T02170167
KMRF 220056Z AUTO 08004KT 10SM CLR 25/18 A3021 RMK AO2 LTG DSNT N AND NE AND SW TSE28B32E39B41E47 SLP174 T02500178
KMRF 220041Z AUTO 00000KT 10SM VCTS CLR 24/19 A3022 RMK AO2 LTG DSNT ALQDS TSE28B32E39B41
KMRF 220032Z AUTO 00000KT 10SM VCTS CLR 25/18 A3021 RMK AO2 LTG DSNT ALQDS TSE28B32
KMRF 212356Z AUTO 14005KT 10SM VCTS CLR 25/17 A3021 RMK AO2 LTG DSNT ALQDS TSB26E52B54 SLP173 T02500172 10278 20228 55010
KMRF 212354Z AUTO 14004KT 10SM VCTS CLR 25/17 A3021 RMK AO2 LTG DSNT ALQDS TSB26E52B54
KMRF 212337Z AUTO 14005KT 10SM VCTS CLR 25/17 A3021 RMK AO2 LTG DSNT SW-N TSB26
KMRF 212256Z AUTO 18009KT 10SM FEW044 26/17 A3021 RMK AO2 LTG DSNT ALQDS SLP171 T02610167
KMRF 212156Z AUTO 17009G14KT 10SM SCT038 27/17 A3022 RMK AO2 LTG DSNT NW-NE SLP175 T02720172
KMRF 212056Z AUTO 17007KT 10SM SCT038 26/18 A3024 RMK AO2 SLP184 T02610178 56006
KMRF 211956Z AUTO 17010G14KT 10SM FEW075 26/17 A3025 RMK AO2 SLP185 T02610172
KMRF 211856Z AUTO 17006KT 10SM SCT075 25/18 A3025 RMK AO2 SLP188 T02500178
KMRF 211756Z AUTO 20004KT 10SM BKN075 23/17 A3026 RMK AO2 SLP195 T02280167 10239 20172 50002
KMRF 211656Z AUTO VRB06KT 10SM SCT120 24/17 A3027 RMK AO2 SLP195 T02390172
KMRF 211556Z AUTO 16006KT 10SM OVC110 22/16 A3027 RMK AO2 SLP193 T02220156
KMRF 211456Z AUTO 00000KT 10SM OVC110 20/16 A3026 RMK AO2 SLP193 T02000161 53013
KMRF 211356Z AUTO 02003KT 10SM OVC100 19/17 A3024 RMK AO2 SLP189 T01890167
KMRF 211256Z AUTO 05003KT 10SM BKN100 18/17 A3022 RMK AO2 SLP183 T01780167
KMRF 211156Z AUTO 34003KT 10SM BKN110 18/17 A3022 RMK AO2 SLP177 60031 7//// T01780167 10183 20172 50002
KMRF 211056Z AUTO 28004KT 10SM FEW120 18/17 A3022 RMK AO2 SLP178 T01780167